createdAt,value
2018-05-18T03:52:45.937Z,11.43
2018-05-18T03:55:14.101Z,11.46
2018-05-18T03:57:42.274Z,11.47
2018-05-18T04:00:10.450Z,11.49
2018-05-18T04:02:50.367Z,11.50
2018-05-18T04:05:30.318Z,11.53
2018-05-18T04:08:11.703Z,11.53
2018-05-18T04:10:46.716Z,11.54
2018-05-18T04:13:15.561Z,11.56
2018-05-18T04:15:43.729Z,11.56
2018-05-18T04:18:11.894Z,11.57
2018-05-18T04:20:40.112Z,11.60
2018-05-18T04:23:22.587Z,11.62
2018-05-18T04:25:50.757Z,11.65
2018-05-18T04:28:18.935Z,11.66
2018-05-18T04:30:47.128Z,11.69
2018-05-18T04:33:15.305Z,11.64
2018-05-18T04:35:43.487Z,11.66
2018-05-18T04:38:13.850Z,11.68
2018-05-18T04:40:42.030Z,11.75
2018-05-18T04:43:10.810Z,11.77
2018-05-18T04:45:39.006Z,11.81
2018-05-18T04:48:07.209Z,11.86
2018-05-18T04:50:35.393Z,11.89
2018-05-18T04:53:03.567Z,11.93
2018-05-18T04:55:32.796Z,11.96
2018-05-18T04:58:00.958Z,12.01
2018-05-18T05:00:29.113Z,12.04
2018-05-18T05:02:57.287Z,12.07
2018-05-18T05:05:25.463Z,12.11
2018-05-18T05:07:53.656Z,12.17
2018-05-18T05:10:21.822Z,12.19
2018-05-18T05:12:50.001Z,12.22
2018-05-18T05:15:18.188Z,12.24
2018-05-18T05:17:46.414Z,12.26
2018-05-18T05:20:14.592Z,12.26
2018-05-18T05:22:42.775Z,12.33
2018-05-18T05:25:11.849Z,12.38
2018-05-18T05:27:40.060Z,12.39
2018-05-18T05:30:08.243Z,12.42
2018-05-18T05:32:38.357Z,12.47
2018-05-18T05:35:06.579Z,12.46
2018-05-18T05:37:34.777Z,12.51
2018-05-18T05:40:03.288Z,12.57
2018-05-18T05:42:31.833Z,12.60
2018-05-18T05:45:00.011Z,12.53
2018-05-18T05:47:28.282Z,12.56
2018-05-18T05:49:56.735Z,12.57
2018-05-18T05:52:24.898Z,12.61
2018-05-18T05:54:53.048Z,12.62
2018-05-18T05:57:21.569Z,12.66
2018-05-18T05:59:49.710Z,12.68
2018-05-18T06:02:18.029Z,12.70
2018-05-18T06:04:46.252Z,12.75
2018-05-18T06:07:14.671Z,12.80
2018-05-18T06:09:42.900Z,12.88
2018-05-18T06:12:11.382Z,12.90
2018-05-18T06:14:39.532Z,12.88
2018-05-18T06:17:07.693Z,12.91
2018-05-18T06:19:35.908Z,12.84
2018-05-18T06:22:04.019Z,12.93
2018-05-18T06:24:32.185Z,12.90
2018-05-18T06:27:00.341Z,12.95
2018-05-18T06:29:28.858Z,12.99
2018-05-18T06:31:57.090Z,13.06
2018-05-18T06:34:25.238Z,13.05
2018-05-18T06:36:53.388Z,13.06
2018-05-18T06:39:21.554Z,13.09
2018-05-18T06:41:49.753Z,13.11
2018-05-18T06:44:17.930Z,13.12
2018-05-18T06:46:46.452Z,13.11
2018-05-18T06:49:14.573Z,13.16
2018-05-18T06:51:42.738Z,13.18
2018-05-18T06:54:11.242Z,13.25
2018-05-18T06:56:39.567Z,13.28
2018-05-18T06:59:07.759Z,13.36
2018-05-18T07:01:35.919Z,13.42
2018-05-18T07:04:04.152Z,13.43
2018-05-18T07:06:32.283Z,13.47
2018-05-18T07:09:00.444Z,13.46
2018-05-18T07:11:28.610Z,13.52
2018-05-18T07:13:56.786Z,13.60
2018-05-18T07:16:24.977Z,13.68
2018-05-18T07:18:53.178Z,13.76
2018-05-18T07:21:21.339Z,13.83
2018-05-18T07:23:49.497Z,13.93
2018-05-18T07:26:17.661Z,14.04
2018-05-18T07:28:45.868Z,14.12
2018-05-18T07:31:24.357Z,14.19
2018-05-18T07:33:52.590Z,14.29
2018-05-18T07:36:20.763Z,14.30
2018-05-18T07:38:48.911Z,14.45
2018-05-18T07:41:24.032Z,14.48
2018-05-18T07:43:52.304Z,14.58
2018-05-18T07:46:20.433Z,14.68
2018-05-18T07:48:48.595Z,14.75
2018-05-18T07:51:16.789Z,14.84
2018-05-18T07:53:44.970Z,14.90
2018-05-18T07:56:15.518Z,15.01
2018-05-18T07:58:43.705Z,15.13
2018-05-18T08:01:12.355Z,15.23
2018-05-18T08:03:40.536Z,15.35
2018-05-18T08:06:16.093Z,15.51
2018-05-18T08:08:44.271Z,15.63
2018-05-18T08:11:12.425Z,15.79
2018-05-18T08:13:40.579Z,15.98
2018-05-18T08:16:10.091Z,16.24
2018-05-18T08:18:38.239Z,16.46
2018-05-18T08:21:06.704Z,16.49
2018-05-18T08:23:41.789Z,16.45
2018-05-18T08:26:10.286Z,16.39
2018-05-18T08:28:50.556Z,16.37
2018-05-18T08:31:18.843Z,16.36
2018-05-18T08:33:47.270Z,16.34
2018-05-18T08:36:15.433Z,16.40
2018-05-18T08:38:43.989Z,16.49
2018-05-18T08:41:12.158Z,16.48
2018-05-18T08:43:40.453Z,16.57
2018-05-18T08:46:08.602Z,16.67
2018-05-18T08:48:36.789Z,16.82
2018-05-18T08:51:05.238Z,16.88
2018-05-18T08:53:33.370Z,16.86
2018-05-18T08:56:01.840Z,16.88
2018-05-18T08:58:30.324Z,16.96
2018-05-18T09:00:58.472Z,17.07
2018-05-18T09:03:26.652Z,17.15
2018-05-18T09:05:55.037Z,17.27
2018-05-18T09:08:23.473Z,17.43
2018-05-18T09:10:51.860Z,17.54
2018-05-18T09:13:20.087Z,17.67
2018-05-18T09:15:48.550Z,17.76
2018-05-18T09:18:16.711Z,17.92
2018-05-18T09:20:45.151Z,17.97
2018-05-18T09:23:13.287Z,17.98
2018-05-18T09:25:41.616Z,17.98
2018-05-18T09:28:10.018Z,18.07
2018-05-18T09:30:38.590Z,18.21
2018-05-18T09:33:07.069Z,18.37
2018-05-18T09:35:35.540Z,18.43
2018-05-18T09:38:03.845Z,18.42
2018-05-18T09:40:32.003Z,18.58
2018-05-18T09:43:00.140Z,18.74
2018-05-18T09:45:28.338Z,18.71
2018-05-18T09:47:56.484Z,18.84
2018-05-18T09:50:24.633Z,19.04
2018-05-18T09:52:52.798Z,19.07
2018-05-18T09:55:21.145Z,19.10
2018-05-18T09:57:49.115Z,18.92
2018-05-18T10:00:17.272Z,18.86
2018-05-18T10:02:45.458Z,18.87
2018-05-18T10:05:13.619Z,18.96
2018-05-18T10:07:41.780Z,19.12
2018-05-18T10:10:10.778Z,19.06
2018-05-18T10:12:38.911Z,18.94
2018-05-18T10:15:07.083Z,18.83
2018-05-18T10:17:35.423Z,18.76
2018-05-18T10:20:03.631Z,18.72
2018-05-18T10:22:31.782Z,18.80
2018-05-18T10:24:59.956Z,19.00
2018-05-18T10:27:28.116Z,19.16
2018-05-18T10:29:56.289Z,19.25
2018-05-18T10:32:24.444Z,19.30
2018-05-18T10:34:52.601Z,19.46
2018-05-18T10:37:22.795Z,19.53
2018-05-18T10:39:50.949Z,19.44
2018-05-18T10:42:19.421Z,19.36
2018-05-18T10:44:47.580Z,19.24
2018-05-18T10:47:15.756Z,19.30
2018-05-18T10:49:43.907Z,19.36
2018-05-18T10:52:12.077Z,19.52
2018-05-18T10:54:40.276Z,19.73
2018-05-18T10:57:08.852Z,19.90
2018-05-18T10:59:37.760Z,20.12
2018-05-18T11:02:05.936Z,20.25
2018-05-18T11:04:34.420Z,20.11
2018-05-18T11:07:02.626Z,20.14
2018-05-18T11:09:31.095Z,20.17
2018-05-18T11:11:59.294Z,20.10
2018-05-18T11:14:27.450Z,20.23
2018-05-18T11:16:55.625Z,20.34
2018-05-18T11:19:24.141Z,20.60
2018-05-18T11:21:52.274Z,20.86
2018-05-18T11:24:20.448Z,20.87
2018-05-18T11:26:48.702Z,20.50
2018-05-18T11:29:17.168Z,20.26
2018-05-18T11:31:45.480Z,19.58
2018-05-18T11:34:13.734Z,19.49
2018-05-18T11:36:41.901Z,19.44
2018-05-18T11:39:10.313Z,19.42
2018-05-18T11:41:38.452Z,19.44
2018-05-18T11:44:06.643Z,19.59
2018-05-18T11:46:35.166Z,19.81
2018-05-18T11:49:03.319Z,20.03
2018-05-18T11:51:31.482Z,20.09
2018-05-18T11:54:00.036Z,20.29
2018-05-18T11:56:28.206Z,20.29
2018-05-18T11:58:56.516Z,20.22
2018-05-18T12:01:24.893Z,20.34
2018-05-18T12:03:53.045Z,20.44
2018-05-18T12:06:21.198Z,20.60
2018-05-18T12:08:49.365Z,20.48
2018-05-18T12:11:17.522Z,20.60
2018-05-18T12:13:45.906Z,20.66
2018-05-18T12:16:14.523Z,20.76
2018-05-18T12:18:42.661Z,20.81
2018-05-18T12:21:10.816Z,20.68
2018-05-18T12:23:38.991Z,20.73
2018-05-18T12:26:07.208Z,20.84
2018-05-18T12:28:36.252Z,20.88
2018-05-18T12:31:04.456Z,21.01
2018-05-18T12:33:33.266Z,21.03
2018-05-18T12:36:01.451Z,21.13
2018-05-18T12:38:29.607Z,21.17
2018-05-18T12:40:57.773Z,21.26
2018-05-18T12:43:25.916Z,21.32
2018-05-18T12:45:54.073Z,21.31
2018-05-18T12:48:22.232Z,21.50
2018-05-18T12:50:50.403Z,21.64
2018-05-18T12:53:18.549Z,21.63
2018-05-18T12:55:46.699Z,21.77
2018-05-18T12:58:14.851Z,21.68
2018-05-18T13:00:43.001Z,21.76
2018-05-18T13:03:11.158Z,21.87
2018-05-18T13:05:39.314Z,21.97
2018-05-18T13:08:07.572Z,22.18
2018-05-18T13:10:36.605Z,22.35
2018-05-18T13:13:04.825Z,22.55
2018-05-18T13:15:32.966Z,22.58
2018-05-18T13:18:01.127Z,22.57
2018-05-18T13:20:29.281Z,22.59
2018-05-18T13:22:57.459Z,22.61
2018-05-18T13:25:25.605Z,22.64
2018-05-18T13:27:53.755Z,22.66
2018-05-18T13:30:21.927Z,22.38
2018-05-18T13:32:50.071Z,21.96
2018-05-18T13:35:18.257Z,22.10
2018-05-18T13:37:46.398Z,22.18
2018-05-18T13:40:14.572Z,22.27
2018-05-18T13:42:42.733Z,22.38
2018-05-18T13:45:10.918Z,22.42
2018-05-18T13:47:39.078Z,22.74
2018-05-18T13:50:07.225Z,23.10
2018-05-18T13:52:35.384Z,23.36
2018-05-18T13:55:03.559Z,23.70
2018-05-18T13:57:31.711Z,24.02
2018-05-18T13:59:59.859Z,24.23
2018-05-18T14:02:28.037Z,24.30
2018-05-18T14:04:56.214Z,24.42
2018-05-18T14:07:24.382Z,24.91
2018-05-18T14:09:52.557Z,25.37
2018-05-18T14:12:20.730Z,25.70
2018-05-18T14:14:48.884Z,26.06
2018-05-18T14:17:24.219Z,26.61
2018-05-18T14:19:58.134Z,26.86
2018-05-18T14:22:26.295Z,26.80
2018-05-18T14:24:54.442Z,26.70
2018-05-18T14:27:22.827Z,27.02
2018-05-18T14:29:50.995Z,27.35
2018-05-18T14:32:19.159Z,27.24
2018-05-18T14:34:47.477Z,27.42
2018-05-18T14:37:15.637Z,27.67
2018-05-18T14:39:43.977Z,28.06
2018-05-18T14:42:12.544Z,28.11
2018-05-18T14:44:40.758Z,28.02
2018-05-18T14:47:09.294Z,28.02
2018-05-18T14:49:37.455Z,28.05
2018-05-18T14:52:06.065Z,27.54
2018-05-18T14:54:34.244Z,27.37
2018-05-18T14:57:02.654Z,27.54
2018-05-18T14:59:30.850Z,27.95
2018-05-18T15:01:59.330Z,28.14
2018-05-18T15:04:27.501Z,28.08
2018-05-18T15:06:55.845Z,28.18
2018-05-18T15:09:24.068Z,28.30
2018-05-18T15:11:52.590Z,28.45
2018-05-18T15:14:20.775Z,28.57
2018-05-18T15:16:49.182Z,28.44
2018-05-18T15:19:17.315Z,28.17
2018-05-18T15:21:45.505Z,28.04
2018-05-18T15:24:14.068Z,27.96
2018-05-18T15:26:42.205Z,27.95
2018-05-18T15:29:10.359Z,28.08
2018-05-18T15:31:39.689Z,27.84
2018-05-18T15:34:07.845Z,27.89
2018-05-18T15:36:36.476Z,27.83
2018-05-18T15:39:05.412Z,28.00
2018-05-18T15:41:33.950Z,28.13
2018-05-18T15:44:03.194Z,28.06
2018-05-18T15:46:31.756Z,28.03
2018-05-18T15:48:59.900Z,27.74
2018-05-18T15:51:28.595Z,27.46
2018-05-18T15:53:56.734Z,26.36
2018-05-18T15:56:25.214Z,26.41
2018-05-18T15:58:54.347Z,26.75
2018-05-18T16:01:22.901Z,26.57
2018-05-18T16:03:51.423Z,26.61
2018-05-18T16:06:19.616Z,26.69
2018-05-18T16:08:48.152Z,26.59
2018-05-18T16:11:16.318Z,26.47
2018-05-18T16:13:44.462Z,26.43
2018-05-18T16:16:12.972Z,26.25
2018-05-18T16:18:41.978Z,25.86
2018-05-18T16:21:10.264Z,25.37
2018-05-18T16:23:38.794Z,25.01
2018-05-18T16:26:06.939Z,24.35
2018-05-18T16:28:35.115Z,23.98
2018-05-18T16:31:03.291Z,23.79
2018-05-18T16:33:31.809Z,23.76
2018-05-18T16:36:00.433Z,23.55
2018-05-18T16:38:28.721Z,23.37
2018-05-18T16:40:56.886Z,23.28
2018-05-18T16:43:25.029Z,23.11
2018-05-18T16:45:53.236Z,23.01
2018-05-18T16:48:21.407Z,22.85
2018-05-18T16:50:49.900Z,22.71
2018-05-18T16:53:18.059Z,22.58
2018-05-18T16:55:46.251Z,22.44
2018-05-18T16:58:14.557Z,22.15
2018-05-18T17:00:42.697Z,21.81
2018-05-18T17:03:11.315Z,21.82
2018-05-18T17:05:39.453Z,21.77
2018-05-18T17:08:07.615Z,21.73
2018-05-18T17:10:35.821Z,21.65
2018-05-18T17:13:03.968Z,21.45
2018-05-18T17:15:32.267Z,21.23
2018-05-18T17:18:00.797Z,21.22
2018-05-18T17:20:28.948Z,21.19
2018-05-18T17:22:57.282Z,21.01
2018-05-18T17:25:25.860Z,20.94
2018-05-18T17:27:54.440Z,20.94
2018-05-18T17:30:22.607Z,20.87
2018-05-18T17:32:50.984Z,20.82
2018-05-18T17:35:19.534Z,20.79
2018-05-18T17:37:48.157Z,20.80
2018-05-18T17:40:16.309Z,20.69
2018-05-18T17:42:44.480Z,20.63
2018-05-18T17:45:12.669Z,20.58
2018-05-18T17:47:41.201Z,20.55
2018-05-18T17:50:09.654Z,20.50
2018-05-18T17:52:37.836Z,20.44
2018-05-18T17:55:06.202Z,20.38
2018-05-18T17:57:34.966Z,20.29
2018-05-18T18:00:03.117Z,20.23
2018-05-18T18:02:31.303Z,20.13
2018-05-18T18:04:59.461Z,20.07
2018-05-18T18:07:27.823Z,20.02
2018-05-18T18:09:55.971Z,19.97
2018-05-18T18:12:24.865Z,19.90
2018-05-18T18:14:53.038Z,19.84
2018-05-18T18:17:21.251Z,19.79
2018-05-18T18:19:49.556Z,19.73
2018-05-18T18:22:17.906Z,19.66
2018-05-18T18:24:46.536Z,19.60
2018-05-18T18:27:14.695Z,19.53
2018-05-18T18:29:43.281Z,19.45
2018-05-18T18:32:11.619Z,19.36
2018-05-18T18:34:40.253Z,19.30
2018-05-18T18:37:08.495Z,19.20
2018-05-18T18:39:37.314Z,19.14
2018-05-18T18:42:05.462Z,19.08
2018-05-18T18:44:33.725Z,19.04
2018-05-18T18:47:02.314Z,18.98
2018-05-18T18:49:30.466Z,18.92
2018-05-18T18:51:58.648Z,18.86
2018-05-18T18:54:26.853Z,18.79
2018-05-18T18:56:55.058Z,18.72
2018-05-18T18:59:23.540Z,18.65
2018-05-18T19:01:51.703Z,18.59
2018-05-18T19:04:20.101Z,18.53
2018-05-18T19:06:48.861Z,18.44
2018-05-18T19:09:17.006Z,18.35
2018-05-18T19:11:46.162Z,18.23
2018-05-18T19:14:14.817Z,18.13
2018-05-18T19:16:42.983Z,18.05
2018-05-18T19:19:11.789Z,17.97
2018-05-18T19:21:39.985Z,17.89
2018-05-18T19:24:08.217Z,17.83
2018-05-18T19:26:36.343Z,17.75
2018-05-18T19:29:04.759Z,17.69
2018-05-18T19:31:32.909Z,17.63
2018-05-18T19:34:01.074Z,17.56
2018-05-18T19:36:30.301Z,17.49
2018-05-18T19:39:00.252Z,17.41
2018-05-18T19:41:28.446Z,17.37
2018-05-18T19:43:56.596Z,17.35
2018-05-18T19:46:24.758Z,17.32
2018-05-18T19:48:52.925Z,17.32
2018-05-18T19:51:22.415Z,17.25
2018-05-18T19:53:50.588Z,17.20
2018-05-18T19:56:18.721Z,17.12
2018-05-18T19:58:46.876Z,17.07
2018-05-18T20:01:15.215Z,17.00
2018-05-18T20:03:43.397Z,16.95
2018-05-18T20:06:14.266Z,16.89
2018-05-18T20:08:45.846Z,16.85
2018-05-18T20:11:13.995Z,16.78
2018-05-18T20:13:42.169Z,16.79
2018-05-18T20:16:10.326Z,16.77
2018-05-18T20:18:38.495Z,16.74
2018-05-18T20:21:06.677Z,16.71
2018-05-18T20:23:34.818Z,16.68
2018-05-18T20:26:02.980Z,16.64
2018-05-18T20:28:31.149Z,16.62
2018-05-18T20:30:59.327Z,16.62
2018-05-18T20:33:27.465Z,16.58
2018-05-18T20:35:55.642Z,16.54
2018-05-18T20:38:23.780Z,16.51
2018-05-18T20:40:51.964Z,16.44
2018-05-18T20:43:20.164Z,16.42
2018-05-18T20:45:54.939Z,16.37
2018-05-18T20:48:23.124Z,16.34
2018-05-18T20:50:51.263Z,16.31
2018-05-18T20:53:19.445Z,16.29
2018-05-18T20:55:47.625Z,16.23
2018-05-18T20:58:15.803Z,16.17
2018-05-18T21:00:43.969Z,16.11
2018-05-18T21:03:12.124Z,16.03
2018-05-18T21:05:40.277Z,16.03
2018-05-18T21:08:08.439Z,16.00
2018-05-18T21:10:36.639Z,16.00
2018-05-18T21:13:04.782Z,15.96
2018-05-18T21:15:32.957Z,15.93
2018-05-18T21:18:01.111Z,15.89
2018-05-18T21:20:29.272Z,15.84
2018-05-18T21:22:57.445Z,15.80
2018-05-18T21:25:25.636Z,15.76
2018-05-18T21:27:53.803Z,15.70
2018-05-18T21:30:24.732Z,15.64
2018-05-18T21:32:52.875Z,15.57
2018-05-18T21:35:21.052Z,15.53
2018-05-18T21:37:49.208Z,15.48
2018-05-18T21:40:17.362Z,15.39
2018-05-18T21:42:45.539Z,15.35
2018-05-18T21:45:13.690Z,15.36
2018-05-18T21:47:41.857Z,15.31
2018-05-18T21:50:10.000Z,15.22
2018-05-18T21:52:38.157Z,15.18
2018-05-18T21:55:06.302Z,15.09
2018-05-18T21:57:34.475Z,15.04
2018-05-18T22:00:02.637Z,15.00
2018-05-18T22:02:30.791Z,14.97
2018-05-18T22:04:59.494Z,14.97
2018-05-18T22:07:27.672Z,14.96
2018-05-18T22:09:55.823Z,14.96
2018-05-18T22:12:23.971Z,14.97
2018-05-18T22:14:52.129Z,14.99
2018-05-18T22:17:20.313Z,15.01
2018-05-18T22:19:48.471Z,15.02
2018-05-18T22:22:16.608Z,15.00
2018-05-18T22:24:44.789Z,14.99
2018-05-18T22:27:16.575Z,14.96
2018-05-18T22:29:45.403Z,14.91
2018-05-18T22:32:13.631Z,14.87
2018-05-18T22:34:41.808Z,14.82
2018-05-18T22:37:10.357Z,14.76
2018-05-18T22:39:39.063Z,14.70
2018-05-18T22:42:07.224Z,14.69
2018-05-18T22:44:35.387Z,14.68
2018-05-18T22:47:03.551Z,14.68
2018-05-18T22:49:31.698Z,14.65
2018-05-18T22:51:59.877Z,14.64
2018-05-18T22:54:28.017Z,14.61
2018-05-18T22:56:56.175Z,14.60
2018-05-18T22:59:26.193Z,14.57
2018-05-18T23:01:54.361Z,14.54
2018-05-18T23:04:22.509Z,14.50
2018-05-18T23:06:50.676Z,14.46
2018-05-18T23:09:25.825Z,14.42
2018-05-18T23:11:53.985Z,14.38
2018-05-18T23:14:22.138Z,14.36
2018-05-18T23:16:50.274Z,14.34
2018-05-18T23:19:18.435Z,14.30
2018-05-18T23:21:46.589Z,14.27
2018-05-18T23:24:18.196Z,14.23
2018-05-18T23:26:46.347Z,14.20
2018-05-18T23:29:15.170Z,14.17
2018-05-18T23:31:43.385Z,14.14
2018-05-18T23:34:11.477Z,14.13
2018-05-18T23:36:39.644Z,14.12
2018-05-18T23:39:13.087Z,14.08
2018-05-18T23:41:41.239Z,14.01
2018-05-18T23:44:09.396Z,13.98
2018-05-18T23:46:37.562Z,13.92
2018-05-18T23:49:05.713Z,13.87
2018-05-18T23:51:33.919Z,13.67
2018-05-18T23:54:02.059Z,13.43
2018-05-18T23:56:30.578Z,13.40
2018-05-18T23:58:58.717Z,13.41
